Time;durP1;ratioP1;P1;durP2;ratioP2;P2;SDS_P1;SDS_P2;PMS_P1;PMS_P2;Temp;Humidity;BMP_temperature;BMP_pressure;BME280_temperature;BME280_humidity;BME280_pressure;Samples;Min_cycle;Max_cycle;Signal;HPM_P1;HPM_P2
2024/01/17 00:02:08;;;;;;;138.68;98.72;;;;;;;;;;5085587;27;20027;-74
2024/01/17 00:04:33;;;;;;;133.80;95.50;;;;;;;;;;5083838;27;20031;-74
2024/01/17 00:06:59;;;;;;;118.18;84.60;;;;;;;;;;5103084;27;20346;-75
2024/01/17 00:09:27;;;;;;;134.77;102.45;;;;;;;;;;5100463;27;20034;-74
2024/01/17 00:11:52;;;;;;;240.50;175.18;;;;;;;;;;5082926;27;20584;-73
2024/01/17 00:14:18;;;;;;;296.33;211.63;;;;;;;;;;5099403;27;20034;-76
2024/01/17 00:16:44;;;;;;;262.35;195.15;;;;;;;;;;5085601;27;20056;-73
2024/01/17 00:19:10;;;;;;;308.63;229.20;;;;;;;;;;5103172;27;20027;-72
2024/01/17 00:21:37;;;;;;;374.27;278.73;;;;;;;;;;5101185;27;20024;-78
2024/01/17 00:24:02;;;;;;;375.98;280.85;;;;;;;;;;5106365;27;20374;-74
2024/01/17 00:26:28;;;;;;;372.33;280.95;;;;;;;;;;5105797;27;21189;-75
2024/01/17 00:28:55;;;;;;;341.48;247.63;;;;;;;;;;5099871;27;20031;-76
2024/01/17 00:31:21;;;;;;;299.50;212.50;;;;;;;;;;5102544;27;20030;-76
2024/01/17 00:33:47;;;;;;;326.23;243.02;;;;;;;;;;5082778;27;20039;-75
2024/01/17 00:36:14;;;;;;;282.48;214.60;;;;;;;;;;5101814;27;20031;-79
2024/01/17 00:38:40;;;;;;;257.95;186.40;;;;;;;;;;5087637;27;20111;-79
2024/01/17 00:41:06;;;;;;;307.67;230.10;;;;;;;;;;5104314;27;20460;-76
2024/01/17 00:43:32;;;;;;;321.25;239.13;;;;;;;;;;5085242;27;20114;-76
2024/01/17 00:45:58;;;;;;;333.73;239.48;;;;;;;;;;5078011;27;20059;-77
2024/01/17 00:48:24;;;;;;;405.42;290.98;;;;;;;;;;5073492;27;20096;-76
2024/01/17 00:50:51;;;;;;;401.75;283.30;;;;;;;;;;5098773;27;20028;-77
2024/01/17 00:53:16;;;;;;;393.08;279.92;;;;;;;;;;5084379;27;20028;-76
2024/01/17 00:55:41;;;;;;;404.35;290.77;;;;;;;;;;5101215;27;20024;-74
2024/01/17 00:58:07;;;;;;;417.52;303.05;;;;;;;;;;5102148;27;23135;-77
2024/01/17 01:00:32;;;;;;;381.77;275.45;;;;;;;;;;5100079;27;20034;-78
2024/01/17 01:02:58;;;;;;;311.80;220.20;;;;;;;;;;5100560;27;20084;-77
2024/01/17 01:05:24;;;;;;;263.10;175.68;;;;;;;;;;5100019;27;20039;-77
2024/01/17 01:07:50;;;;;;;179.52;117.78;;;;;;;;;;5101052;27;20016;-78
2024/01/17 01:10:16;;;;;;;96.03;66.57;;;;;;;;;;5100058;27;20051;-76
2024/01/17 01:12:41;;;;;;;106.05;80.72;;;;;;;;;;5103203;27;20031;-77
2024/01/17 01:15:08;;;;;;;129.98;91.82;;;;;;;;;;5104156;27;20023;-76
2024/01/17 01:17:33;;;;;;;173.82;113.82;;;;;;;;;;5096720;27;20080;-76
2024/01/17 01:19:58;;;;;;;165.70;118.65;;;;;;;;;;5105014;27;20110;-77
2024/01/17 01:22:24;;;;;;;144.50;102.93;;;;;;;;;;5100623;27;20179;-77
2024/01/17 01:24:49;;;;;;;134.90;97.05;;;;;;;;;;5085408;27;20066;-80
2024/01/17 01:27:15;;;;;;;158.63;108.43;;;;;;;;;;5101948;27;20038;-76
2024/01/17 01:29:40;;;;;;;130.80;86.97;;;;;;;;;;5102299;27;20042;-77
2024/01/17 01:32:05;;;;;;;112.28;74.88;;;;;;;;;;5084558;27;20048;-75
2024/01/17 01:34:31;;;;;;;116.97;74.57;;;;;;;;;;5083844;27;20042;-76
2024/01/17 01:36:56;;;;;;;95.28;65.72;;;;;;;;;;5102247;27;20446;-77
2024/01/17 01:39:22;;;;;;;144.50;105.75;;;;;;;;;;5100611;27;20845;-75
2024/01/17 01:41:47;;;;;;;169.40;118.65;;;;;;;;;;5102541;27;20027;-76
2024/01/17 01:44:12;;;;;;;139.65;94.85;;;;;;;;;;5099092;27;20091;-78
2024/01/17 01:46:42;;;;;;;157.90;107.03;;;;;;;;;;5102388;27;20091;-77
2024/01/17 01:49:08;;;;;;;195.23;134.23;;;;;;;;;;5103281;27;20030;-77
2024/01/17 01:51:34;;;;;;;151.65;107.65;;;;;;;;;;5101533;27;20044;-77
2024/01/17 01:54:01;;;;;;;130.57;96.57;;;;;;;;;;5083551;27;20032;-79
2024/01/17 01:56:28;;;;;;;154.38;114.68;;;;;;;;;;5103083;27;20015;-76
2024/01/17 01:58:55;;;;;;;109.88;86.70;;;;;;;;;;5099687;27;20031;-77
2024/01/17 02:01:20;;;;;;;94.45;74.20;;;;;;;;;;5102557;27;20023;-77
2024/01/17 02:03:46;;;;;;;92.95;71.80;;;;;;;;;;5085717;27;20035;-76
2024/01/17 02:06:17;;;;;;;97.13;77.70;;;;;;;;;;5103896;27;20113;-76
2024/01/17 02:08:43;;;;;;;77.63;59.83;;;;;;;;;;5108188;27;20541;-77
2024/01/17 02:11:08;;;;;;;68.75;52.88;;;;;;;;;;5080456;28;21187;-77
2024/01/17 02:13:33;;;;;;;57.33;47.00;;;;;;;;;;5102495;27;20031;-77
2024/01/17 02:15:59;;;;;;;50.70;42.67;;;;;;;;;;5082483;27;20020;-78
2024/01/17 02:18:25;;;;;;;46.85;39.60;;;;;;;;;;5082759;27;20019;-77
2024/01/17 02:20:50;;;;;;;48.45;40.83;;;;;;;;;;5102135;27;20095;-77
2024/01/17 02:23:20;;;;;;;49.20;43.20;;;;;;;;;;5100114;27;20032;-76
2024/01/17 02:25:46;;;;;;;56.65;46.63;;;;;;;;;;5100461;27;20039;-76
2024/01/17 02:28:11;;;;;;;81.63;62.63;;;;;;;;;;5100801;27;20058;-78
2024/01/17 02:30:36;;;;;;;146.18;103.15;;;;;;;;;;5097891;27;20088;-76
2024/01/17 02:33:02;;;;;;;228.32;159.80;;;;;;;;;;5098567;27;20026;-78
2024/01/17 02:35:27;;;;;;;219.68;168.50;;;;;;;;;;5082231;27;20061;-78
2024/01/17 02:37:52;;;;;;;115.88;92.55;;;;;;;;;;5102960;27;20043;-77
2024/01/17 02:40:18;;;;;;;201.32;147.75;;;;;;;;;;5097976;27;20019;-77
2024/01/17 02:42:43;;;;;;;158.32;124.38;;;;;;;;;;5083960;28;20042;-77
2024/01/17 02:45:10;;;;;;;90.20;72.88;;;;;;;;;;5086317;28;20035;-78
2024/01/17 02:47:36;;;;;;;69.13;58.75;;;;;;;;;;5101206;27;20027;-78
2024/01/17 02:50:01;;;;;;;149.63;121.20;;;;;;;;;;5101519;28;20023;-77
2024/01/17 02:52:27;;;;;;;79.32;65.72;;;;;;;;;;5098562;28;20088;-77
2024/01/17 02:54:52;;;;;;;113.80;87.43;;;;;;;;;;5098129;28;20038;-77
2024/01/17 02:57:20;;;;;;;110.55;88.22;;;;;;;;;;5099308;28;20027;-77
2024/01/17 02:59:45;;;;;;;113.38;96.50;;;;;;;;;;5099504;28;20016;-78
2024/01/17 03:02:11;;;;;;;98.55;81.85;;;;;;;;;;5097246;28;20034;-77
2024/01/17 03:04:36;;;;;;;103.00;85.18;;;;;;;;;;5098489;28;20396;-77
2024/01/17 03:07:02;;;;;;;100.78;85.15;;;;;;;;;;5100826;28;20509;-77
2024/01/17 03:09:28;;;;;;;90.28;78.28;;;;;;;;;;5095454;28;20047;-77
2024/01/17 03:11:54;;;;;;;70.45;58.28;;;;;;;;;;5100306;28;20039;-77
2024/01/17 03:14:19;;;;;;;72.40;63.58;;;;;;;;;;5100096;28;20031;-78
2024/01/17 03:16:44;;;;;;;72.68;64.75;;;;;;;;;;5098696;28;20046;-77
2024/01/17 03:19:13;;;;;;;79.35;68.75;;;;;;;;;;5083262;28;20139;-77
2024/01/17 03:21:43;;;;;;;71.88;57.67;;;;;;;;;;5102170;28;20019;-77
2024/01/17 03:24:08;;;;;;;78.80;66.22;;;;;;;;;;5098207;28;20032;-77
2024/01/17 03:26:34;;;;;;;88.95;69.95;;;;;;;;;;5098428;28;20027;-77
2024/01/17 03:28:59;;;;;;;98.85;81.15;;;;;;;;;;5099308;28;20016;-77
2024/01/17 03:31:24;;;;;;;92.63;75.05;;;;;;;;;;5096524;28;20079;-77
2024/01/17 03:33:50;;;;;;;89.13;76.60;;;;;;;;;;5097043;28;20070;-77
2024/01/17 03:36:15;;;;;;;77.38;66.78;;;;;;;;;;5102228;27;20453;-77
2024/01/17 03:38:40;;;;;;;77.78;60.78;;;;;;;;;;5085275;27;20031;-76
2024/01/17 03:41:06;;;;;;;75.03;62.28;;;;;;;;;;5106585;27;20030;-76
2024/01/17 03:43:31;;;;;;;74.85;63.55;;;;;;;;;;5101926;27;20370;-76
2024/01/17 03:45:57;;;;;;;74.63;59.55;;;;;;;;;;5087222;27;20031;-78
2024/01/17 03:48:23;;;;;;;71.90;58.25;;;;;;;;;;5100721;27;20447;-79
2024/01/17 03:50:49;;;;;;;70.80;58.05;;;;;;;;;;5104218;27;20035;-77
2024/01/17 03:53:14;;;;;;;87.57;74.55;;;;;;;;;;5086171;27;20031;-77
2024/01/17 03:55:39;;;;;;;105.60;89.63;;;;;;;;;;5101965;27;20043;-77
2024/01/17 03:58:05;;;;;;;140.07;121.43;;;;;;;;;;5104478;27;21295;-77
2024/01/17 04:00:30;;;;;;;108.68;92.47;;;;;;;;;;5101497;27;20015;-75
2024/01/17 04:02:56;;;;;;;102.05;84.43;;;;;;;;;;5101026;27;20096;-77
2024/01/17 04:05:21;;;;;;;92.03;77.57;;;;;;;;;;5099515;27;20031;-75
2024/01/17 04:07:47;;;;;;;105.35;88.13;;;;;;;;;;5102500;27;20023;-76
2024/01/17 04:10:12;;;;;;;99.95;86.80;;;;;;;;;;5105941;27;20358;-76
2024/01/17 04:12:39;;;;;;;100.28;84.28;;;;;;;;;;5103571;27;20099;-77
2024/01/17 04:15:06;;;;;;;95.88;82.32;;;;;;;;;;5104187;27;20030;-75
2024/01/17 04:17:31;;;;;;;92.65;78.43;;;;;;;;;;5102613;27;20080;-76
2024/01/17 04:19:56;;;;;;;109.97;89.32;;;;;;;;;;5088670;27;20023;-76
2024/01/17 04:22:22;;;;;;;110.95;88.15;;;;;;;;;;5102731;27;20031;-76
2024/01/17 04:24:48;;;;;;;118.22;96.10;;;;;;;;;;5081240;27;20031;-77
2024/01/17 04:27:13;;;;;;;111.30;90.53;;;;;;;;;;5102100;27;20077;-76
2024/01/17 04:29:40;;;;;;;133.93;105.28;;;;;;;;;;5103770;27;20020;-77
2024/01/17 04:32:05;;;;;;;131.25;103.43;;;;;;;;;;5105829;27;20042;-75
2024/01/17 04:34:31;;;;;;;88.80;72.38;;;;;;;;;;5082863;27;20115;-76
2024/01/17 04:36:56;;;;;;;89.65;77.35;;;;;;;;;;5102544;27;20092;-76
2024/01/17 04:39:21;;;;;;;89.97;78.20;;;;;;;;;;5087757;27;20031;-76
2024/01/17 04:41:47;;;;;;;78.10;67.90;;;;;;;;;;5086695;27;20027;-77
2024/01/17 04:44:12;;;;;;;81.45;70.25;;;;;;;;;;5104089;27;20034;-77
2024/01/17 04:46:37;;;;;;;164.18;130.20;;;;;;;;;;5102774;27;20357;-77
2024/01/17 04:49:03;;;;;;;104.10;86.90;;;;;;;;;;5103632;27;20375;-76
2024/01/17 04:51:28;;;;;;;74.65;64.50;;;;;;;;;;5100468;27;20416;-76
2024/01/17 04:53:54;;;;;;;83.95;68.78;;;;;;;;;;5103168;27;20461;-77
2024/01/17 04:56:19;;;;;;;91.57;76.93;;;;;;;;;;5103300;27;20346;-75
2024/01/17 04:58:45;;;;;;;97.95;86.55;;;;;;;;;;5082870;27;20042;-78
2024/01/17 05:01:10;;;;;;;75.88;66.05;;;;;;;;;;5101537;27;20473;-80
2024/01/17 05:03:37;;;;;;;85.07;70.30;;;;;;;;;;5104476;27;20037;-77
2024/01/17 05:06:03;;;;;;;69.72;60.47;;;;;;;;;;5102023;27;20042;-75
2024/01/17 05:08:28;;;;;;;70.32;58.13;;;;;;;;;;5103506;27;20039;-78
2024/01/17 05:10:54;;;;;;;63.80;51.97;;;;;;;;;;5084897;27;20057;-78
2024/01/17 05:13:20;;;;;;;82.82;67.93;;;;;;;;;;5102054;27;20091;-77
2024/01/17 05:15:45;;;;;;;82.45;67.43;;;;;;;;;;5105261;27;20031;-77
2024/01/17 05:18:11;;;;;;;97.15;79.88;;;;;;;;;;5101621;27;20066;-79
2024/01/17 05:20:38;;;;;;;71.97;61.70;;;;;;;;;;5104085;27;20344;-79
2024/01/17 05:23:04;;;;;;;61.83;51.50;;;;;;;;;;5103602;27;20153;-78
2024/01/17 05:25:30;;;;;;;75.90;62.13;;;;;;;;;;5086213;27;20049;-78
2024/01/17 05:27:56;;;;;;;53.92;47.50;;;;;;;;;;5100718;27;20028;-78
2024/01/17 05:30:25;;;;;;;69.45;61.05;;;;;;;;;;5100140;27;20031;-77
2024/01/17 05:33:07;;;;;;;87.15;77.57;;;;;;;;;;5103317;27;20051;-75
2024/01/17 05:35:33;;;;;;;237.43;143.45;;;;;;;;;;5101058;27;20058;-76
2024/01/17 05:37:59;;;;;;;460.48;359.00;;;;;;;;;;5103129;27;20027;-77
2024/01/17 05:40:24;;;;;;;539.47;380.60;;;;;;;;;;5100845;27;20460;-76
2024/01/17 05:42:50;;;;;;;252.50;186.98;;;;;;;;;;5097637;27;20027;-77
2024/01/17 05:45:16;;;;;;;124.25;97.18;;;;;;;;;;5103439;27;21004;-76
2024/01/17 05:47:42;;;;;;;228.40;176.05;;;;;;;;;;5085536;27;20030;-76
2024/01/17 05:50:11;;;;;;;149.93;118.65;;;;;;;;;;5099200;27;20034;-76
2024/01/17 05:52:40;;;;;;;126.63;98.50;;;;;;;;;;5102763;27;20096;-77
2024/01/17 05:55:09;;;;;;;128.00;106.90;;;;;;;;;;5103776;27;20418;-77
2024/01/17 05:57:35;;;;;;;157.15;130.55;;;;;;;;;;5100610;27;20350;-77
2024/01/17 06:00:00;;;;;;;174.18;139.05;;;;;;;;;;5082962;27;20136;-78
2024/01/17 06:02:25;;;;;;;161.10;129.63;;;;;;;;;;5099867;27;20023;-77
2024/01/17 06:04:51;;;;;;;171.05;141.68;;;;;;;;;;5077454;27;20353;-79
2024/01/17 06:07:19;;;;;;;173.98;138.75;;;;;;;;;;5100542;27;20692;-80
2024/01/17 06:09:45;;;;;;;164.90;134.90;;;;;;;;;;5084034;27;20031;-76
2024/01/17 06:12:10;;;;;;;150.13;120.38;;;;;;;;;;5099783;27;20416;-77
2024/01/17 06:14:39;;;;;;;131.73;105.40;;;;;;;;;;5101055;27;20063;-77
2024/01/17 06:17:05;;;;;;;108.03;91.40;;;;;;;;;;5084583;27;20032;-76
2024/01/17 06:19:30;;;;;;;90.22;74.65;;;;;;;;;;5098056;27;20033;-77
2024/01/17 06:21:55;;;;;;;74.38;63.95;;;;;;;;;;5099760;27;20432;-78
2024/01/17 06:24:22;;;;;;;153.27;130.75;;;;;;;;;;5101424;27;20041;-77
2024/01/17 06:26:47;;;;;;;115.63;97.03;;;;;;;;;;5083436;27;20019;-77
2024/01/17 06:29:13;;;;;;;98.72;80.07;;;;;;;;;;5102515;27;20041;-77
2024/01/17 06:31:38;;;;;;;125.20;104.22;;;;;;;;;;5081718;27;20110;-78
2024/01/17 06:34:03;;;;;;;150.48;121.47;;;;;;;;;;5100404;27;21306;-77
2024/01/17 06:36:29;;;;;;;141.25;110.82;;;;;;;;;;5100120;27;20434;-77
2024/01/17 06:38:54;;;;;;;132.00;109.90;;;;;;;;;;5099529;27;20124;-75
2024/01/17 06:41:20;;;;;;;131.95;107.93;;;;;;;;;;5101909;27;20023;-75
2024/01/17 06:43:46;;;;;;;114.90;92.75;;;;;;;;;;5093089;27;21131;-76
2024/01/17 06:46:11;;;;;;;92.03;74.90;;;;;;;;;;5108143;27;20493;-76
2024/01/17 06:48:36;;;;;;;101.65;86.32;;;;;;;;;;5101149;27;20016;-76
2024/01/17 06:51:02;;;;;;;83.18;67.80;;;;;;;;;;5104902;28;20023;-77
2024/01/17 06:53:28;;;;;;;106.78;85.32;;;;;;;;;;5086767;28;20030;-76
2024/01/17 06:55:53;;;;;;;116.80;94.10;;;;;;;;;;5086508;28;20072;-76
2024/01/17 06:58:19;;;;;;;125.07;99.95;;;;;;;;;;5102507;28;20465;-77
2024/01/17 07:00:45;;;;;;;117.57;97.05;;;;;;;;;;5095031;28;20016;-77
2024/01/17 07:03:10;;;;;;;125.50;107.10;;;;;;;;;;5082409;28;20369;-77
2024/01/17 07:05:36;;;;;;;145.27;123.63;;;;;;;;;;5097042;28;20012;-78
2024/01/17 07:08:01;;;;;;;111.65;94.20;;;;;;;;;;5081113;28;20023;-76
2024/01/17 07:10:27;;;;;;;140.15;120.07;;;;;;;;;;5099937;27;20044;-76
2024/01/17 07:12:53;;;;;;;157.93;134.77;;;;;;;;;;5104306;27;20104;-75
2024/01/17 07:15:19;;;;;;;189.85;166.60;;;;;;;;;;5120478;27;20042;-76
2024/01/17 07:17:44;;;;;;;243.27;212.27;;;;;;;;;;5122022;27;20426;-76
2024/01/17 07:20:10;;;;;;;164.45;143.57;;;;;;;;;;5118738;27;20023;-77
2024/01/17 07:22:42;;;;;;;165.98;147.05;;;;;;;;;;5120562;27;20342;-77
2024/01/17 07:25:08;;;;;;;144.48;127.22;;;;;;;;;;5121148;27;20466;-76
2024/01/17 07:27:34;;;;;;;232.68;207.70;;;;;;;;;;5121190;27;20407;-77
2024/01/17 07:29:59;;;;;;;178.25;150.25;;;;;;;;;;5118775;27;20041;-76
2024/01/17 07:32:25;;;;;;;162.40;144.80;;;;;;;;;;5120825;27;20072;-77
2024/01/17 07:34:50;;;;;;;133.85;118.15;;;;;;;;;;5119203;27;20023;-77
2024/01/17 07:37:15;;;;;;;140.13;124.50;;;;;;;;;;5121120;27;20015;-76
2024/01/17 07:39:43;;;;;;;136.00;121.22;;;;;;;;;;5118403;27;20019;-77
2024/01/17 07:42:08;;;;;;;128.52;114.35;;;;;;;;;;5116755;27;20058;-74
2024/01/17 07:44:34;;;;;;;105.35;92.70;;;;;;;;;;5118115;27;20062;-76
2024/01/17 07:46:59;;;;;;;253.30;142.32;;;;;;;;;;5120142;27;20023;-76
2024/01/17 07:49:24;;;;;;;137.65;113.70;;;;;;;;;;5101299;27;20044;-76
2024/01/17 07:51:50;;;;;;;279.65;201.65;;;;;;;;;;5121444;27;20035;-76
2024/01/17 07:54:19;;;;;;;141.65;118.30;;;;;;;;;;5118911;27;20027;-77
2024/01/17 07:56:44;;;;;;;135.55;119.60;;;;;;;;;;5118728;27;20514;-77
2024/01/17 07:59:09;;;;;;;186.57;140.20;;;;;;;;;;5122535;27;21059;-77
2024/01/17 08:01:35;;;;;;;204.85;158.70;;;;;;;;;;5101769;27;20034;-77
2024/01/17 08:04:00;;;;;;;280.35;217.30;;;;;;;;;;5121984;27;20441;-77
2024/01/17 08:06:30;;;;;;;83.10;69.18;;;;;;;;;;5104462;27;20032;-77
2024/01/17 08:08:56;;;;;;;119.03;97.93;;;;;;;;;;5120986;27;20038;-77
2024/01/17 08:11:21;;;;;;;115.55;96.18;;;;;;;;;;5120417;27;20382;-76
2024/01/17 08:13:46;;;;;;;86.68;72.47;;;;;;;;;;5120616;27;20468;-77
2024/01/17 08:16:12;;;;;;;84.28;71.65;;;;;;;;;;5118604;27;20022;-78
2024/01/17 08:18:39;;;;;;;79.70;68.32;;;;;;;;;;5118543;27;20020;-77
2024/01/17 08:21:04;;;;;;;94.20;79.28;;;;;;;;;;5119285;27;20039;-78
2024/01/17 08:23:30;;;;;;;106.13;90.15;;;;;;;;;;5118935;27;20027;-80
2024/01/17 08:25:55;;;;;;;126.90;107.85;;;;;;;;;;5117678;27;20037;-81
2024/01/17 08:28:20;;;;;;;172.23;141.48;;;;;;;;;;5119894;27;20019;-77
2024/01/17 08:30:46;;;;;;;135.70;115.40;;;;;;;;;;5111418;27;20073;-77
2024/01/17 08:33:11;;;;;;;90.05;77.05;;;;;;;;;;5103561;27;20112;-76
2024/01/17 08:35:36;;;;;;;84.90;75.22;;;;;;;;;;5114388;27;20015;-77
2024/01/17 08:38:02;;;;;;;163.25;129.38;;;;;;;;;;5110624;27;20015;-77
2024/01/17 08:40:28;;;;;;;128.95;109.18;;;;;;;;;;5114532;27;20026;-78
2024/01/17 08:42:53;;;;;;;140.32;115.43;;;;;;;;;;5114756;27;20027;-80
2024/01/17 08:45:19;;;;;;;156.50;133.05;;;;;;;;;;5119779;27;20420;-79
2024/01/17 08:47:44;;;;;;;200.18;161.98;;;;;;;;;;5119395;27;20031;-77
2024/01/17 08:50:13;;;;;;;224.10;193.98;;;;;;;;;;5118679;27;20083;-77
2024/01/17 08:52:38;;;;;;;351.98;312.10;;;;;;;;;;5118128;27;20027;-78
2024/01/17 08:55:08;;;;;;;264.50;224.00;;;;;;;;;;5119015;27;20029;-79
2024/01/17 08:57:34;;;;;;;187.73;155.88;;;;;;;;;;5096825;27;20031;-78
2024/01/17 08:59:59;;;;;;;124.07;109.35;;;;;;;;;;5116633;27;20114;-78
2024/01/17 09:02:25;;;;;;;143.55;125.63;;;;;;;;;;5118934;27;20052;-79
2024/01/17 09:04:51;;;;;;;100.00;87.00;;;;;;;;;;5118679;27;20049;-79
2024/01/17 09:07:16;;;;;;;79.70;69.10;;;;;;;;;;5118083;27;20504;-78
2024/01/17 09:09:41;;;;;;;71.85;62.67;;;;;;;;;;5115649;27;20473;-78
2024/01/17 09:12:07;;;;;;;82.32;73.60;;;;;;;;;;5119013;27;20100;-78
2024/01/17 09:14:33;;;;;;;78.68;70.18;;;;;;;;;;5114733;27;20110;-78
2024/01/17 09:16:58;;;;;;;105.13;91.30;;;;;;;;;;5101989;27;20020;-76
2024/01/17 09:19:23;;;;;;;61.40;53.63;;;;;;;;;;5101272;27;20036;-81
2024/01/17 09:21:51;;;;;;;72.15;58.22;;;;;;;;;;5101867;27;20837;-78
2024/01/17 09:24:16;;;;;;;48.88;40.13;;;;;;;;;;5103060;27;20031;-79
2024/01/17 09:26:42;;;;;;;67.32;47.40;;;;;;;;;;5102417;27;20035;-78
2024/01/17 09:29:07;;;;;;;146.27;100.30;;;;;;;;;;5084408;27;20470;-77
2024/01/17 09:31:32;;;;;;;158.30;110.65;;;;;;;;;;5097565;27;20090;-79
2024/01/17 09:33:58;;;;;;;45.70;36.25;;;;;;;;;;5100904;27;20788;-79
2024/01/17 09:36:23;;;;;;;29.23;26.13;;;;;;;;;;5102512;27;23960;-79
2024/01/17 09:38:48;;;;;;;32.55;29.00;;;;;;;;;;5102375;27;20821;-79
2024/01/17 09:41:14;;;;;;;47.38;35.03;;;;;;;;;;5098641;27;20350;-76
2024/01/17 09:43:39;;;;;;;30.40;26.77;;;;;;;;;;5100475;27;20039;-77
2024/01/17 09:46:11;;;;;;;48.60;38.63;;;;;;;;;;5101097;27;20023;-76
2024/01/17 09:48:37;;;;;;;77.60;51.13;;;;;;;;;;5099804;27;20031;-78
2024/01/17 09:51:03;;;;;;;34.08;27.02;;;;;;;;;;5098790;27;21286;-79
2024/01/17 09:53:30;;;;;;;26.98;23.50;;;;;;;;;;5102833;27;20732;-79
2024/01/17 09:55:57;;;;;;;29.30;26.23;;;;;;;;;;5116470;27;20034;-79
2024/01/17 09:58:23;;;;;;;26.77;22.70;;;;;;;;;;5105773;27;20215;-80
2024/01/17 10:00:48;;;;;;;20.80;18.55;;;;;;;;;;5102434;27;20162;-79
2024/01/17 10:03:20;;;;;;;37.00;32.05;;;;;;;;;;5102014;27;20024;-80
2024/01/17 10:05:50;;;;;;;22.55;20.17;;;;;;;;;;5101694;27;20073;-79
2024/01/17 10:08:17;;;;;;;46.83;34.90;;;;;;;;;;5096889;27;20034;-74
2024/01/17 10:10:43;;;;;;;46.85;35.10;;;;;;;;;;5096491;27;20107;-76
2024/01/17 10:13:10;;;;;;;91.32;61.75;;;;;;;;;;5094206;27;20458;-79
2024/01/17 10:15:40;;;;;;;155.05;98.68;;;;;;;;;;5094875;27;20201;-78
2024/01/17 10:18:05;;;;;;;;;;;;;;;;;;5096484;27;20023;-77
2024/01/17 10:20:31;;;;;;;175.57;116.17;;;;;;;;;;5080475;27;20399;-75
2024/01/17 10:22:56;;;;;;;145.00;89.35;;;;;;;;;;5094229;27;20262;-76
2024/01/17 10:25:21;;;;;;;54.25;39.80;;;;;;;;;;5097130;27;20518;-79
2024/01/17 10:27:48;;;;;;;71.38;44.95;;;;;;;;;;5097643;27;20049;-78
2024/01/17 10:30:13;;;;;;;203.90;114.38;;;;;;;;;;5080211;27;20026;-79
2024/01/17 10:32:39;;;;;;;82.65;55.22;;;;;;;;;;5096745;27;20028;-80
2024/01/17 10:35:06;;;;;;;56.67;39.53;;;;;;;;;;5098823;27;20027;-77
2024/01/17 10:37:32;;;;;;;56.65;39.78;;;;;;;;;;5082556;28;20947;-80
2024/01/17 10:40:11;;;;;;;29.83;23.58;;;;;;;;;;5095731;27;20027;-78
2024/01/17 10:42:36;;;;;;;176.90;112.22;;;;;;;;;;5098586;27;20023;-77
2024/01/17 10:45:03;;;;;;;56.80;43.58;;;;;;;;;;5096895;27;20050;-76
2024/01/17 10:47:28;;;;;;;49.35;37.38;;;;;;;;;;5098779;27;20051;-78
2024/01/17 10:49:54;;;;;;;46.72;37.38;;;;;;;;;;5103683;27;20062;-72
2024/01/17 10:52:21;;;;;;;392.20;249.07;;;;;;;;;;5098185;28;20146;-75
2024/01/17 10:54:46;;;;;;;1851.93;648.10;;;;;;;;;;5117581;28;20043;-71
2024/01/17 10:57:14;;;;;;;1555.85;928.10;;;;;;;;;;5103585;27;20030;-75
2024/01/17 10:59:41;;;;;;;271.50;231.18;;;;;;;;;;5097835;27;20029;-75
2024/01/17 11:02:11;;;;;;;94.22;76.18;;;;;;;;;;5100093;27;20046;-76
2024/01/17 11:04:38;;;;;;;74.43;57.22;;;;;;;;;;5103661;28;20478;-76
2024/01/17 11:07:04;;;;;;;54.10;43.55;;;;;;;;;;5087577;28;20084;-77
2024/01/17 11:09:31;;;;;;;44.47;39.33;;;;;;;;;;5102484;28;20039;-75
2024/01/17 11:11:57;;;;;;;94.70;65.45;;;;;;;;;;5100644;28;20154;-76
2024/01/17 11:14:25;;;;;;;105.63;75.38;;;;;;;;;;5105024;28;20069;-76
2024/01/17 11:16:51;;;;;;;64.88;51.67;;;;;;;;;;5106755;28;20042;-75
2024/01/17 11:19:18;;;;;;;91.88;61.65;;;;;;;;;;5104382;28;20051;-75
2024/01/17 11:21:44;;;;;;;329.60;202.15;;;;;;;;;;5105203;28;20492;-75
2024/01/17 11:24:28;;;;;;;215.27;139.45;;;;;;;;;;5098607;28;20042;-75
2024/01/17 11:27:05;;;;;;;89.85;66.00;;;;;;;;;;5100934;28;20048;-76
2024/01/17 11:29:33;;;;;;;49.47;40.25;;;;;;;;;;5102327;28;20038;-75
2024/01/17 11:32:03;;;;;;;36.47;32.47;;;;;;;;;;5100762;28;20064;-76
2024/01/17 11:34:29;;;;;;;54.85;48.85;;;;;;;;;;5104965;28;20027;-76
2024/01/17 11:36:54;;;;;;;54.08;47.92;;;;;;;;;;5099753;28;20057;-75
2024/01/17 11:39:20;;;;;;;41.95;37.35;;;;;;;;;;5097105;28;20084;-75
2024/01/17 11:41:46;;;;;;;49.58;39.33;;;;;;;;;;5101564;28;20079;-75
2024/01/17 11:44:12;;;;;;;48.72;41.72;;;;;;;;;;5104572;28;20039;-75
2024/01/17 11:46:40;;;;;;;37.83;31.60;;;;;;;;;;5103044;28;20067;-76
2024/01/17 11:49:07;;;;;;;58.22;47.47;;;;;;;;;;5104657;28;20020;-77
2024/01/17 11:51:34;;;;;;;47.80;39.38;;;;;;;;;;5103419;28;20028;-77
2024/01/17 11:54:01;;;;;;;54.20;45.83;;;;;;;;;;5084592;28;20024;-76
2024/01/17 11:56:27;;;;;;;29.42;26.40;;;;;;;;;;5105260;27;20031;-77
2024/01/17 11:58:53;;;;;;;52.35;45.72;;;;;;;;;;5092867;27;20031;-76
2024/01/17 12:01:18;;;;;;;38.85;34.70;;;;;;;;;;5108682;27;20060;-78
2024/01/17 12:03:44;;;;;;;43.22;37.78;;;;;;;;;;5108663;27;20047;-77
2024/01/17 12:06:11;;;;;;;132.15;111.03;;;;;;;;;;5109604;27;20351;-77
2024/01/17 12:08:36;;;;;;;98.43;87.32;;;;;;;;;;5107540;27;20054;-75
2024/01/17 12:11:02;;;;;;;73.63;65.63;;;;;;;;;;5106284;27;20082;-78
2024/01/17 12:13:28;;;;;;;1782.25;799.33;;;;;;;;;;5108353;27;20042;-73
2024/01/17 12:15:56;;;;;;;557.30;497.58;;;;;;;;;;5110242;27;20030;-74
2024/01/17 12:18:22;;;;;;;110.93;99.43;;;;;;;;;;5106095;27;20381;-73
2024/01/17 12:20:49;;;;;;;1162.55;649.05;;;;;;;;;;5105484;27;20540;-76
2024/01/17 12:23:15;;;;;;;88.43;78.28;;;;;;;;;;5104075;27;20102;-76
2024/01/17 12:25:40;;;;;;;72.38;62.50;;;;;;;;;;5103336;27;20023;-76
2024/01/17 12:28:06;;;;;;;48.20;42.90;;;;;;;;;;5085605;27;20389;-76
2024/01/17 12:30:31;;;;;;;42.13;37.88;;;;;;;;;;5100570;27;20055;-74
2024/01/17 12:32:56;;;;;;;43.90;39.22;;;;;;;;;;5105784;27;20036;-76
2024/01/17 12:35:22;;;;;;;41.75;36.35;;;;;;;;;;5104951;27;20035;-76
2024/01/17 12:37:48;;;;;;;35.55;31.80;;;;;;;;;;5102921;27;20028;-76
2024/01/17 12:40:13;;;;;;;29.63;26.63;;;;;;;;;;5109213;27;20112;-74
2024/01/17 12:42:39;;;;;;;25.90;23.45;;;;;;;;;;5105995;27;20019;-76
2024/01/17 12:45:06;;;;;;;28.73;25.83;;;;;;;;;;5107158;27;20398;-77
2024/01/17 12:47:31;;;;;;;30.15;27.02;;;;;;;;;;5104287;27;20020;-75
2024/01/17 12:49:57;;;;;;;48.15;43.15;;;;;;;;;;5106479;27;20358;-76
2024/01/17 12:52:23;;;;;;;38.42;33.30;;;;;;;;;;5106548;27;20030;-76
2024/01/17 12:54:48;;;;;;;36.80;32.90;;;;;;;;;;5105035;27;20020;-77
2024/01/17 12:57:14;;;;;;;36.28;32.78;;;;;;;;;;5105710;27;20374;-75
2024/01/17 12:59:39;;;;;;;34.53;31.25;;;;;;;;;;5105754;27;20072;-75
2024/01/17 13:02:05;;;;;;;48.17;43.67;;;;;;;;;;5106800;27;20027;-74
2024/01/17 13:04:33;;;;;;;48.20;43.50;;;;;;;;;;5107276;27;20031;-74
2024/01/17 13:07:00;;;;;;;44.47;40.17;;;;;;;;;;5104337;27;20031;-76
2024/01/17 13:09:28;;;;;;;40.38;36.47;;;;;;;;;;5100469;27;20020;-76
2024/01/17 13:11:54;;;;;;;36.38;32.72;;;;;;;;;;5082155;28;20659;-74
2024/01/17 13:14:26;;;;;;;38.20;34.45;;;;;;;;;;5082410;28;20039;-74
2024/01/17 13:16:53;;;;;;;36.33;32.67;;;;;;;;;;5091384;28;20034;-78
2024/01/17 13:19:19;;;;;;;37.00;33.33;;;;;;;;;;5086758;28;20131;-76
2024/01/17 13:21:44;;;;;;;37.35;33.75;;;;;;;;;;5094150;28;20118;-77
2024/01/17 13:24:10;;;;;;;50.05;44.95;;;;;;;;;;5085439;28;20478;-75
2024/01/17 13:26:37;;;;;;;42.95;38.42;;;;;;;;;;5090077;28;20027;-75
2024/01/17 13:29:04;;;;;;;40.85;36.78;;;;;;;;;;5082287;28;20030;-75
2024/01/17 13:31:30;;;;;;;42.13;37.88;;;;;;;;;;5085242;28;20092;-75
2024/01/17 13:33:57;;;;;;;44.65;40.15;;;;;;;;;;5080509;27;20035;-75
2024/01/17 13:36:24;;;;;;;50.97;45.88;;;;;;;;;;5078900;27;20023;-73
2024/01/17 13:38:49;;;;;;;54.55;49.05;;;;;;;;;;5075612;28;20035;-76
2024/01/17 13:41:15;;;;;;;46.55;41.83;;;;;;;;;;5098613;28;20019;-75
2024/01/17 13:43:41;;;;;;;47.05;42.28;;;;;;;;;;5097096;28;20031;-75
2024/01/17 13:46:06;;;;;;;55.58;49.78;;;;;;;;;;5095991;28;20409;-76
2024/01/17 13:48:33;;;;;;;45.28;40.47;;;;;;;;;;5096920;28;20119;-75
2024/01/17 13:51:00;;;;;;;44.63;40.05;;;;;;;;;;5095567;28;20059;-75
2024/01/17 13:53:28;;;;;;;49.22;44.03;;;;;;;;;;5096653;27;20350;-76
2024/01/17 13:55:57;;;;;;;62.83;56.03;;;;;;;;;;5096173;28;20038;-74
2024/01/17 13:58:23;;;;;;;68.05;60.20;;;;;;;;;;5084914;28;20033;-77
2024/01/17 14:00:52;;;;;;;60.90;54.50;;;;;;;;;;5075740;28;20031;-73